Time;durP1;ratioP1;P1;durP2;ratioP2;P2;SDS_P1;SDS_P2;PMS_P1;PMS_P2;Temp;Humidity;BMP_temperature;BMP_pressure;BME280_temperature;BME280_humidity;BME280_pressure;Samples;Min_cycle;Max_cycle;Signal;HPM_P1;HPM_P2
2022/01/01 00:01:53;;;;;;;69.13;32.30;;;;;;;;;;5046743;28;20053;-60
2022/01/01 00:04:21;;;;;;;65.13;33.47;;;;;;;;;;5040826;28;20511;-60
2022/01/01 00:06:47;;;;;;;76.35;39.30;;;;;;;;;;5042190;28;20136;-60
2022/01/01 00:09:13;;;;;;;83.32;43.08;;;;;;;;;;5024386;28;20037;-60
2022/01/01 00:11:39;;;;;;;79.55;42.75;;;;;;;;;;5027273;28;20391;-61
2022/01/01 00:14:05;;;;;;;78.90;44.58;;;;;;;;;;5045269;28;20049;-60
2022/01/01 00:16:31;;;;;;;94.72;49.05;;;;;;;;;;5036549;28;20060;-59
2022/01/01 00:18:57;;;;;;;78.40;42.70;;;;;;;;;;5035215;28;20061;-60
2022/01/01 00:21:23;;;;;;;79.38;41.78;;;;;;;;;;5071569;28;20083;-59
2022/01/01 00:23:50;;;;;;;81.82;43.03;;;;;;;;;;5075472;28;20048;-60
2022/01/01 00:26:16;;;;;;;86.63;43.70;;;;;;;;;;5083444;28;20062;-59
2022/01/01 00:28:42;;;;;;;81.65;42.75;;;;;;;;;;5085936;28;20056;-61
2022/01/01 00:31:08;;;;;;;80.28;43.33;;;;;;;;;;5085133;28;20085;-60
2022/01/01 00:33:34;;;;;;;90.35;45.60;;;;;;;;;;5088435;28;20094;-61
2022/01/01 00:36:00;;;;;;;90.45;45.63;;;;;;;;;;5090053;28;20040;-61
2022/01/01 00:38:26;;;;;;;82.18;44.10;;;;;;;;;;5089217;28;20050;-61
2022/01/01 00:40:52;;;;;;;96.03;45.28;;;;;;;;;;5088454;28;20501;-61
2022/01/01 00:43:18;;;;;;;79.00;42.92;;;;;;;;;;5087557;28;20046;-60
2022/01/01 00:45:44;;;;;;;89.43;41.58;;;;;;;;;;5087822;28;20032;-62
2022/01/01 00:48:10;;;;;;;85.07;40.30;;;;;;;;;;5089379;28;20040;-59
2022/01/01 00:50:36;;;;;;;85.30;43.30;;;;;;;;;;5089389;28;20028;-59
2022/01/01 00:53:03;;;;;;;77.18;41.15;;;;;;;;;;5089873;28;20093;-60
2022/01/01 00:55:29;;;;;;;90.35;45.15;;;;;;;;;;5092402;28;20478;-61
2022/01/01 00:57:55;;;;;;;92.50;46.10;;;;;;;;;;5093241;28;20059;-60
2022/01/01 01:00:21;;;;;;;94.50;48.38;;;;;;;;;;5091282;28;20482;-60
2022/01/01 01:02:47;;;;;;;96.07;48.40;;;;;;;;;;5091915;28;20044;-60
2022/01/01 01:05:13;;;;;;;99.15;49.35;;;;;;;;;;5091564;28;20052;-61
2022/01/01 01:07:39;;;;;;;92.75;47.20;;;;;;;;;;5091512;28;20040;-60
2022/01/01 01:10:05;;;;;;;89.05;44.80;;;;;;;;;;5091239;28;20520;-59
2022/01/01 01:12:42;;;;;;;79.93;40.00;;;;;;;;;;5092949;28;20051;-60
2022/01/01 01:15:11;;;;;;;78.25;38.58;;;;;;;;;;5091732;28;20110;-60
2022/01/01 01:17:37;;;;;;;73.35;37.47;;;;;;;;;;5091399;28;20439;-61
2022/01/01 01:20:04;;;;;;;77.22;36.97;;;;;;;;;;5091815;28;20389;-62
2022/01/01 01:22:30;;;;;;;75.40;35.67;;;;;;;;;;5090309;28;20048;-59
2022/01/01 01:24:56;;;;;;;73.38;34.53;;;;;;;;;;5090392;28;20036;-60
2022/01/01 01:27:23;;;;;;;74.95;34.83;;;;;;;;;;5092103;28;20040;-60
2022/01/01 01:29:50;;;;;;;66.82;32.78;;;;;;;;;;5091712;28;20040;-60
2022/01/01 01:32:16;;;;;;;73.22;32.70;;;;;;;;;;5091331;28;20036;-60
2022/01/01 01:34:42;;;;;;;63.13;30.13;;;;;;;;;;5090701;28;20431;-60
2022/01/01 01:37:08;;;;;;;70.55;30.20;;;;;;;;;;5092189;28;20040;-62
2022/01/01 01:39:34;;;;;;;61.65;26.98;;;;;;;;;;5092448;28;20119;-61
2022/01/01 01:42:00;;;;;;;64.70;27.48;;;;;;;;;;5090759;28;20182;-61
2022/01/01 01:44:29;;;;;;;56.53;25.23;;;;;;;;;;5092815;28;20032;-61
2022/01/01 01:46:56;;;;;;;57.75;25.63;;;;;;;;;;5088685;28;20040;-61
2022/01/01 01:49:22;;;;;;;57.25;26.65;;;;;;;;;;5091826;28;20772;-59
2022/01/01 01:51:49;;;;;;;61.05;28.05;;;;;;;;;;5090911;28;20096;-61
2022/01/01 01:54:16;;;;;;;66.03;27.20;;;;;;;;;;5089176;28;20040;-59
2022/01/01 01:56:43;;;;;;;65.53;28.13;;;;;;;;;;5090395;28;20126;-61
2022/01/01 01:59:10;;;;;;;62.78;29.30;;;;;;;;;;5089494;28;20036;-60
2022/01/01 02:01:36;;;;;;;71.22;29.98;;;;;;;;;;5089222;28;20088;-61
2022/01/01 02:04:03;;;;;;;73.75;32.05;;;;;;;;;;5090738;28;20451;-60
2022/01/01 02:06:29;;;;;;;70.97;33.05;;;;;;;;;;5091655;28;20044;-61
2022/01/01 02:08:55;;;;;;;73.97;34.20;;;;;;;;;;5091410;28;20464;-59
2022/01/01 02:11:23;;;;;;;77.18;36.15;;;;;;;;;;5092039;28;20036;-59
2022/01/01 02:18:51;;;;;;;84.95;39.97;;;;;;;;;;5086363;28;20043;-60
2022/01/01 02:21:19;;;;;;;89.30;42.45;;;10.50;99.90;;;;;;5085560;28;20040;-61
2022/01/01 02:23:46;;;;;;;87.15;46.00;;;;;;;;;;5076955;28;20183;-60
2022/01/01 02:26:15;;;;;;;91.35;48.03;;;;;;;;;;5088703;28;20410;-60
2022/01/01 02:28:41;;;;;;;90.40;48.63;;;;;;;;;;5077130;28;20490;-61
2022/01/01 02:31:07;;;;;;;101.80;49.20;;;;;;;;;;5090220;28;20044;-59
2022/01/01 02:33:34;;;;;;;107.28;50.38;;;;;;;;;;5089542;28;20047;-61
2022/01/01 02:36:00;;;;;;;92.00;47.65;;;;;;;;;;5090219;28;20042;-61
2022/01/01 02:38:26;;;;;;;97.05;50.20;;;;;;;;;;5090919;28;20395;-59
2022/01/01 02:40:52;;;;;;;99.72;51.25;;;;;;;;;;5090090;28;20050;-60
2022/01/01 02:43:18;;;;;;;101.43;53.40;;;;;;;;;;5091165;28;20039;-60
2022/01/01 02:45:44;;;;;;;106.57;53.35;;;;;;;;;;5089342;28;20035;-60
2022/01/01 02:48:13;;;;;;;103.80;53.88;;;;;;;;;;5089588;28;20561;-61
2022/01/01 02:50:39;;;;;;;104.55;53.25;;;;;;;;;;5087836;28;20287;-61
2022/01/01 02:53:12;;;;;;;97.53;53.50;;;;;;;;;;5090244;28;20044;-63
2022/01/01 02:55:38;;;;;;;100.57;53.85;;;;;;;;;;5089274;28;20032;-61
2022/01/01 02:58:04;;;;;;;105.38;55.38;;;;;;;;;;5087547;28;20493;-61
2022/01/01 03:00:30;;;;;;;110.43;56.70;;;;;;;;;;5088865;28;20129;-62
2022/01/01 03:02:56;;;;;;;97.13;52.92;;;;;;;;;;5090504;28;20063;-59
2022/01/01 03:05:22;;;;;;;107.18;56.53;;;;;;;;;;5090487;28;20487;-61
2022/01/01 03:07:48;;;;;;;113.32;55.65;;;;;;;;;;5089720;28;20039;-61
2022/01/01 03:10:14;;;;;;;103.55;55.20;;;;;;;;;;5087627;28;20495;-60
2022/01/01 03:12:40;;;;;;;108.35;55.63;;;;;;;;;;5090157;28;20529;-62
2022/01/01 03:15:07;;;;;;;105.18;56.78;;;;;;;;;;5089965;28;20198;-61
2022/01/01 03:17:33;;;;;;;112.28;56.30;;;;;;;;;;5086876;28;20105;-61
2022/01/01 03:19:59;;;;;;;111.28;55.42;;;;;;;;;;5088972;28;20035;-60
2022/01/01 03:22:25;;;;;;;106.68;56.55;;;;;;;;;;5088128;28;20040;-60
2022/01/01 03:24:51;;;;;;;115.50;54.60;;;;;;;;;;5088794;28;20035;-62
2022/01/01 03:27:17;;;;;;;101.35;54.80;;;;;;;;;;5088224;28;20793;-61
2022/01/01 03:29:43;;;;;;;110.05;55.22;;;;;;;;;;5088859;28;20482;-61
2022/01/01 03:32:09;;;;;;;102.82;53.60;;;;;;;;;;5090712;28;20409;-61
2022/01/01 03:34:35;;;;;;;110.07;56.03;;;;;;;;;;5086829;28;20047;-59
2022/01/01 03:37:01;;;;;;;104.53;53.85;;;;;;;;;;5087504;28;20039;-59
2022/01/01 03:39:27;;;;;;;103.93;53.03;;;;;;;;;;5087001;28;20048;-60
2022/01/01 03:41:53;;;;;;;110.15;53.75;;;;;;;;;;5089344;28;20440;-60
2022/01/01 03:44:19;;;;;;;101.72;52.58;;;;;;;;;;5089453;28;20054;-61
2022/01/01 03:46:46;;;;;;;105.47;54.55;;;;;;;;;;5087907;28;20031;-61
2022/01/01 03:49:12;;;;;;;99.32;51.58;;;;;;;;;;5088437;28;20052;-62
2022/01/01 03:51:38;;;;;;;100.63;51.85;;;;;;;;;;5086882;28;20072;-61
2022/01/01 03:54:04;;;;;;;99.45;53.38;;;;;;;;;;5089672;28;20047;-62
2022/01/01 03:56:30;;;;;;;98.50;52.85;;;;;;;;;;5089030;28;20032;-62
2022/01/01 03:58:56;;;;;;;96.88;52.95;;;;;;;;;;5087011;28;20036;-60
2022/01/01 04:01:22;;;;;;;101.13;51.92;;;;;;;;;;5088152;28;20036;-61
2022/01/01 04:03:48;;;;;;;96.15;51.65;;;;;;;;;;5090141;28;20052;-61
2022/01/01 04:06:14;;;;;;;93.85;50.65;;;;;;;;;;5088736;28;20054;-58
2022/01/01 04:08:40;;;;;;;91.90;49.97;;;;;;;;;;5086235;28;20468;-61
2022/01/01 04:11:06;;;;;;;96.57;51.17;;;;;;;;;;5089482;28;20750;-60
2022/01/01 04:13:32;;;;;;;103.43;49.90;;;;;;;;;;5089959;28;20063;-60
2022/01/01 04:15:58;;;;;;;102.57;48.83;;;;;;;;;;5087703;28;20048;-60
2022/01/01 04:18:40;;;;;;;93.93;50.55;;;;;;;;;;5088014;28;20086;-62
2022/01/01 04:21:06;;;;;;;94.00;47.25;;;;;;;;;;5086571;28;20036;-61
2022/01/01 04:23:33;;;;;;;91.93;47.95;;;;;;;;;;5090871;28;20051;-61
2022/01/01 04:25:59;;;;;;;102.78;48.72;;;;;;;;;;5094197;28;20375;-60
2022/01/01 04:28:25;;;;;;;82.20;45.95;;;;;;;;;;5093396;28;20040;-61
2022/01/01 04:30:51;;;;;;;91.18;46.42;;;;;;;;;;5092939;28;20044;-62
2022/01/01 04:33:17;;;;;;;95.88;46.45;;;;;;;;;;5092717;28;20040;-61
2022/01/01 04:35:43;;;;;;;91.07;47.35;;;;;;;;;;5094141;28;20047;-59
2022/01/01 04:38:22;;;;;;;83.28;44.88;;;;;;;;;;5092448;28;20438;-59
2022/01/01 04:40:48;;;;;;;93.32;45.47;;;;;;;;;;5090438;28;20044;-61
2022/01/01 04:43:14;;;;;;;92.88;46.40;;;;;;;;;;5092725;28;20040;-60
2022/01/01 04:45:40;;;;;;;93.38;47.40;;;;;;;;;;5092300;28;20048;-60
2022/01/01 04:48:06;;;;;;;91.07;44.85;;;;;;;;;;5093195;28;20043;-59
2022/01/01 04:50:32;;;;;;;92.47;46.25;;;;;;;;;;5091896;28;20059;-60
2022/01/01 04:52:58;;;;;;;98.38;45.40;;;;;;;;;;5090237;28;20040;-59
2022/01/01 04:55:25;;;;;;;94.25;45.95;;;;;;;;;;5092770;28;20478;-59
2022/01/01 04:57:51;;;;;;;91.13;44.20;;;;;;;;;;5092924;28;20048;-61
2022/01/01 05:00:17;;;;;;;100.63;45.55;;;;;;;;;;5092456;28;20032;-61
2022/01/01 05:02:43;;;;;;;88.82;44.47;;;;;;;;;;5092498;28;20028;-59
2022/01/01 05:05:09;;;;;;;100.78;44.20;;;;;;;;;;5093286;28;20034;-61
2022/01/01 05:07:35;;;;;;;85.10;39.85;;;;;;;;;;5092868;28;20556;-60
2022/01/01 05:10:01;;;;;;;80.80;39.13;;;;;;;;;;5092229;28;20043;-60
2022/01/01 05:12:27;;;;;;;84.10;38.38;;;;;;;;;;5092845;28;20401;-61
2022/01/01 05:14:54;;;;;;;76.93;34.88;;;;;;;;;;5089703;28;20044;-59
2022/01/01 05:17:20;;;;;;;77.72;32.55;;;;;;;;;;5091354;28;20040;-61
2022/01/01 05:19:46;;;;;;;71.43;30.88;;;;;;;;;;5091869;28;20390;-62
2022/01/01 05:22:12;;;;;;;72.68;29.92;;;;;;;;;;5091491;28;20047;-61
2022/01/01 05:24:38;;;;;;;69.82;29.77;;;;;;;;;;5089864;28;21536;-60
2022/01/01 05:27:04;;;;;;;73.47;29.60;;;;;;;;;;5092342;28;20040;-60
2022/01/01 05:29:30;;;;;;;64.93;27.52;;;;;;;;;;5093067;28;20426;-60
2022/01/01 05:31:56;;;;;;;60.90;26.08;;;;;;;;;;5090360;28;20036;-60
2022/01/01 05:34:22;;;;;;;68.75;26.83;;;;;;;;;;5091640;28;20036;-61
2022/01/01 05:36:48;;;;;;;63.90;24.67;;;;;;;;;;5091355;28;20043;-61
2022/01/01 05:39:14;;;;;;;58.33;25.30;;;;;;;;;;5090269;28;20528;-59
2022/01/01 05:41:40;;;;;;;56.97;24.65;;;;;;;;;;5090196;28;20055;-60
2022/01/01 05:44:06;;;;;;;55.47;23.67;;;;;;;;;;5091325;28;20040;-59
2022/01/01 05:46:32;;;;;;;60.63;25.40;;;;;;;;;;5091265;28;20490;-60
2022/01/01 05:48:59;;;;;;;59.38;22.35;;;;;;;;;;5091960;28;20093;-60
2022/01/01 05:51:25;;;;;;;54.33;21.85;;;;;;;;;;5088927;28;20089;-63
2022/01/01 05:53:51;;;;;;;58.40;22.90;;;;;;;;;;5088850;28;20040;-60
2022/01/01 05:56:17;;;;;;;54.92;22.77;;;;;;;;;;5089228;28;20036;-61
2022/01/01 05:58:43;;;;;;;55.15;21.75;;;;;;;;;;5092570;28;20089;-61
2022/01/01 06:01:09;;;;;;;55.30;20.52;;;;;;;;;;5091839;28;20467;-59
2022/01/01 06:03:35;;;;;;;65.72;21.35;;;;;;;;;;5089176;28;20048;-60
2022/01/01 06:06:01;;;;;;;55.42;20.35;;;;;;;;;;5092724;28;20063;-59
2022/01/01 06:08:28;;;;;;;51.90;18.80;;;;;;;;;;5090347;28;20105;-62
2022/01/01 06:10:58;;;;;;;51.85;18.90;;;;;;;;;;5091735;28;20039;-59
2022/01/01 06:13:24;;;;;;;53.15;19.33;;;;;;;;;;5091983;28;20046;-59
2022/01/01 06:15:50;;;;;;;48.42;19.00;;;;;;;;;;5089459;28;20071;-60
2022/01/01 06:18:16;;;;;;;55.92;19.02;;;;;;;;;;5088617;28;20064;-60
2022/01/01 06:20:43;;;;;;;54.75;19.20;;;;;;;;;;5088023;28;20122;-59
2022/01/01 06:23:09;;;;;;;49.80;17.98;;;;;;;;;;5087789;28;20518;-61
2022/01/01 06:25:36;;;;;;;50.88;17.58;;;;;;;;;;5078232;28;20447;-61
2022/01/01 06:28:02;;;;;;;46.60;17.48;;;;;;;;;;5084892;28;20039;-61
2022/01/01 06:30:34;;;;;;;54.22;17.83;;;;;;;;;;5084826;28;20046;-60
2022/01/01 06:33:11;;;;;;;41.42;16.60;;;;;;;;;;5091122;28;20112;-59
2022/01/01 06:35:37;;;;;;;48.15;16.58;;;;;;;;;;5090056;28;20549;-60
2022/01/01 06:38:03;;;;;;;39.15;17.02;;;;;;;;;;5087533;28;20043;-60
2022/01/01 06:40:29;;;;;;;48.28;16.85;;;;;;;;;;5088440;28;20089;-61
2022/01/01 06:42:55;;;;;;;41.00;15.93;;;;;;;;;;5091822;28;20044;-62
2022/01/01 06:45:21;;;;;;;37.53;15.75;;;;;;;;;;5089735;28;20044;-60
2022/01/01 06:47:47;;;;;;;39.08;15.43;;;;;;;;;;5090630;28;20044;-60
2022/01/01 06:50:13;;;;;;;42.00;16.55;;;;;;;;;;5089562;28;20036;-61
2022/01/01 06:52:44;;;;;;;37.20;15.35;;;;;;;;;;5088818;28;20039;-62
2022/01/01 06:55:10;;;;;;;38.45;16.38;;;;;;;;;;5086424;28;20040;-61
2022/01/01 06:57:36;;;;;;;49.58;16.65;;;;;;;;;;5088695;28;21968;-61
2022/01/01 07:00:02;;;;;;;36.53;16.95;;;;;;;;;;5089613;28;20114;-60
2022/01/01 07:02:28;;;;;;;42.55;16.65;;;;;;;;;;5088602;28;20036;-60
2022/01/01 07:04:54;;;;;;;45.83;17.10;;;;;;;;;;5088767;28;20036;-60
2022/01/01 07:07:20;;;;;;;36.13;17.48;;;;;;;;;;5087741;28;20047;-61
2022/01/01 07:09:46;;;;;;;49.15;18.70;;;;;;;;;;5084954;28;20049;-61
2022/01/01 07:12:14;;;;;;;39.08;17.30;;;;;;;;;;5089216;28;20104;-60
2022/01/01 07:14:40;;;;;;;43.80;17.92;;;;;;;;;;5089123;28;20032;-61
2022/01/01 07:17:06;;;;;;;44.25;18.35;;;;;;;;;;5088241;28;20039;-61
2022/01/01 07:19:32;;;;;;;45.00;17.23;;;;;;;;;;5088137;28;20043;-59
2022/01/01 07:22:00;;;;;;;49.08;17.60;;;;;;;;;;5086912;28;20036;-61
2022/01/01 07:24:26;;;;;;;40.00;18.10;;;;;;;;;;5089990;28;20032;-60
2022/01/01 07:26:52;;;;;;;45.92;19.58;;;;;;;;;;5082828;28;20044;-62
2022/01/01 07:29:19;;;;;;;45.60;18.42;;;;;;;;;;5083693;28;20497;-60
2022/01/01 07:31:45;;;;;;;41.42;19.08;;;;;;;;;;5086850;28;20048;-62
2022/01/01 07:34:11;;;;;;;46.03;19.77;;;;;;;;;;5090080;28;20039;-62
2022/01/01 07:36:37;;;;;;;36.53;18.88;;;;;;;;;;5089883;28;20538;-60
2022/01/01 07:39:03;;;;;;;47.03;18.40;;;;;;;;;;5087054;28;20043;-59
2022/01/01 07:41:29;;;;;;;40.47;18.83;;;;;;;;;;5089310;28;20039;-61
2022/01/01 07:43:55;;;;;;;45.22;19.73;;;;;;;;;;5089040;28;20059;-60
2022/01/01 07:46:21;;;;;;;50.63;20.15;;;;;;;;;;5090238;28;20486;-62
2022/01/01 07:48:47;;;;;;;42.72;18.65;;;;;;;;;;5089277;28;20117;-60
2022/01/01 07:51:13;;;;;;;47.78;19.40;;;;;;;;;;5090060;28;20036;-60
2022/01/01 07:53:39;;;;;;;51.10;19.25;;;;;;;;;;5088425;28;20047;-61
2022/01/01 07:56:05;;;;;;;39.90;20.02;;;;;;;;;;5089610;28;20047;-61
2022/01/01 07:58:31;;;;;;;48.92;21.05;;;;;;;;;;5086892;28;20040;-60
2022/01/01 08:00:58;;;;;;;46.55;19.98;;;;;;;;;;5083326;28;20047;-61
2022/01/01 08:03:25;;;;;;;44.38;21.05;;;;;;;;;;5086755;28;20054;-60
2022/01/01 08:05:51;;;;;;;43.78;20.33;;;;;;;;;;5088899;28;20047;-60
2022/01/01 08:08:17;;;;;;;46.88;19.92;;;;;;;;;;5088493;28;20132;-59
2022/01/01 08:10:43;;;;;;;49.13;20.75;;;;;;;;;;5086423;28;20074;-60
2022/01/01 08:13:09;;;;;;;45.63;20.65;;;;;;;;;;5089263;28;20028;-61
2022/01/01 08:15:36;;;;;;;39.95;19.92;;;;;;;;;;5088376;28;20113;-60
2022/01/01 08:18:02;;;;;;;47.60;19.65;;;;;;;;;;5089145;28;20093;-62
2022/01/01 08:20:28;;;;;;;41.83;18.85;;;;;;;;;;5084709;28;20039;-60
2022/01/01 08:22:54;;;;;;;46.03;19.77;;;;;;;;;;5087994;28;20059;-60
2022/01/01 08:25:21;;;;;;;42.78;19.90;;;;;;;;;;5089192;28;20044;-60
2022/01/01 08:27:47;;;;;;;38.55;19.17;;;;;;;;;;5089710;28;20040;-63
2022/01/01 08:30:14;;;;;;;43.10;18.33;;;;;;;;;;5089810;28;20036;-60
2022/01/01 08:32:41;;;;;;;43.97;18.80;;;;;;;;;;5089357;28;20092;-62
2022/01/01 08:35:07;;;;;;;36.67;18.63;;;;;;;;;;5090659;28;20496;-61
2022/01/01 08:37:33;;;;;;;44.97;20.70;;;;;;;;;;5090274;28;20047;-60
2022/01/01 08:39:59;;;;;;;40.83;19.48;;;;;;;;;;5090706;28;20035;-61
2022/01/01 08:42:25;;;;;;;45.70;19.58;;;;;;;;;;5090151;28;20036;-60
2022/01/01 08:44:51;;;;;;;42.00;19.98;;;;;;;;;;5090637;28;20059;-60
2022/01/01 08:47:17;;;;;;;43.25;21.10;;;;;;;;;;5090461;28;20517;-59
2022/01/01 08:49:44;;;;;;;43.38;20.77;;;;;;;;;;5090869;28;20460;-60
2022/01/01 08:52:13;;;;;;;47.03;19.70;;;;;;;;;;5090452;28;20367;-61
2022/01/01 08:54:39;;;;;;;44.38;19.30;;;;;;;;;;5090253;28;20039;-61
2022/01/01 08:57:05;;;;;;;40.75;20.20;;;;;;;;;;5090805;28;20111;-61
2022/01/01 08:59:31;;;;;;;51.90;19.52;;;;;;;;;;5090152;28;20127;-59
2022/01/01 09:01:57;;;;;;;44.25;19.50;;;;;;;;;;5090343;28;20178;-59
2022/01/01 09:04:23;;;;;;;37.42;18.98;;;;;;;;;;5090084;28;20044;-60
2022/01/01 09:06:49;;;;;;;37.90;19.30;;;;;;;;;;5090227;28;20478;-61
2022/01/01 09:09:15;;;;;;;30.73;17.95;;;;;;;;;;5092235;28;20043;-59
2022/01/01 09:11:41;;;;;;;30.63;17.20;;;;;;;;;;5092412;28;20383;-60
2022/01/01 09:14:07;;;;;;;39.13;17.45;;;;;;;;;;5094054;28;20086;-62
2022/01/01 09:16:33;;;;;;;38.45;16.10;;;;;;;;;;5093751;28;20036;-60
2022/01/01 09:19:00;;;;;;;30.63;15.93;;;;;;;;;;5094289;28;20031;-61
2022/01/01 09:21:27;;;;;;;32.97;15.68;;;;;;;;;;5093618;28;20101;-59
2022/01/01 09:23:54;;;;;;;31.83;15.70;;;;;;;;;;5093412;28;20123;-59
2022/01/01 09:26:21;;;;;;;29.00;14.90;;;;;;;;;;5093464;28;20048;-62
2022/01/01 09:28:47;;;;;;;30.25;14.52;;;;;;;;;;5093586;28;20112;-60
2022/01/01 09:31:13;;;;;;;34.40;14.57;;;;;;;;;;5093693;28;20042;-61
2022/01/01 09:33:39;;;;;;;27.35;13.52;;;;;;;;;;5093283;28;20577;-59
2022/01/01 09:36:06;;;;;;;25.13;13.00;;;12.20;99.90;;;;;;5092411;28;20047;-61
2022/01/01 09:38:33;;;;;;;27.40;12.70;;;;;;;;;;5093456;28;20069;-59
2022/01/01 09:40:59;;;;;;;29.60;12.88;;;;;;;;;;5093296;28;20050;-61
2022/01/01 09:43:27;;;;;;;21.77;11.23;;;12.50;99.90;;;;;;5093310;28;20036;-59
2022/01/01 09:45:54;;;;;;;21.55;10.50;;;;;;;;;;5093465;28;20040;-61
2022/01/01 09:48:21;;;;;;;23.05;10.52;;;12.50;99.90;;;;;;5093324;28;20119;-61
2022/01/01 09:50:54;;;;;;;20.75;9.77;;;12.40;99.90;;;;;;5092964;28;20040;-61
2022/01/01 09:53:20;;;;;;;22.02;9.63;;;;;;;;;;5092958;28;20101;-61
2022/01/01 09:55:46;;;;;;;20.98;9.88;;;;;;;;;;5093063;28;20043;-59
2022/01/01 09:58:12;;;;;;;20.67;9.57;;;;;;;;;;5092044;28;20039;-62
2022/01/01 10:00:38;;;;;;;20.98;9.27;;;;;;;;;;5092962;28;20039;-60
2022/01/01 10:03:04;;;;;;;19.95;8.70;;;;;;;;;;5093171;28;20032;-61
2022/01/01 10:05:30;;;;;;;18.02;7.90;;;;;;;;;;5092797;28;20040;-63
2022/01/01 10:08:00;;;;;;;18.10;8.25;;;;;;;;;;5092591;28;20123;-60
2022/01/01 10:10:26;;;;;;;17.40;7.65;;;;;;;;;;5092967;28;20398;-60
2022/01/01 10:12:53;;;;;;;18.63;8.80;;;;;;;;;;5092506;28;20032;-60
2022/01/01 10:15:19;;;;;;;17.17;7.50;;;;;;;;;;5092883;28;20915;-61
2022/01/01 10:17:48;;;;;;;17.63;8.50;;;;;;;;;;5092357;28;20072;-62
2022/01/01 10:20:15;;;;;;;15.57;7.20;;;;;;;;;;5092370;28;20032;-62
2022/01/01 10:22:43;;;;;;;16.88;7.80;;;;;;;;;;5092173;28;20048;-61
2022/01/01 10:28:01;;;;;;;15.82;6.97;;;;;;;;;;5092179;28;20044;-62
2022/01/01 10:30:39;;;;;;;15.48;7.13;;;;;;;;;;5092303;28;20040;-61
2022/01/01 10:33:07;;;;;;;17.83;6.38;;;12.80;99.90;;;;;;5092261;28;20549;-59
2022/01/01 10:35:47;;;;;;;15.80;5.82;;;12.50;99.90;;;;;;5092458;28;20047;-62
2022/01/01 10:38:18;;;;;;;13.95;6.10;;;;;;;;;;5085752;28;20123;-61
2022/01/01 10:40:44;;;;;;;14.65;6.22;;;;;;;;;;5092064;28;20122;-60
2022/01/01 10:43:11;;;;;;;16.95;6.47;;;;;;;;;;5091981;28;20108;-62
2022/01/01 10:45:41;;;;;;;15.30;7.38;;;;;;;;;;5092109;28;20452;-62
2022/01/01 10:48:15;;;;;;;15.93;6.53;;;;;;;;;;5092233;28;20059;-61
2022/01/01 10:50:42;;;;;;;14.25;5.70;;;;;;;;;;5091970;28;20040;-61
2022/01/01 10:53:19;;;;;;;21.05;6.85;;;12.60;99.90;;;;;;5091867;28;20119;-61
2022/01/01 10:55:45;;;;;;;13.30;5.30;;;;;;;;;;5091665;28;20093;-59
2022/01/01 10:58:16;;;;;;;13.05;5.85;;;12.60;99.90;;;;;;5091978;28;20066;-60
2022/01/01 11:00:43;;;;;;;16.55;5.68;;;;;;;;;;5091651;28;20092;-61
2022/01/01 11:03:09;;;;;;;16.00;5.30;;;;;;;;;;5091965;28;20094;-60
2022/01/01 11:05:37;;;;;;;15.85;4.85;;;12.40;99.90;;;;;;5091915;28;20525;-60
2022/01/01 11:08:04;;;;;;;12.52;5.18;;;;;;;;;;5091403;28;20158;-60
2022/01/01 11:10:30;;;;;;;15.02;5.30;;;;;;;;;;5091570;28;20032;-59
2022/01/01 11:12:59;;;;;;;11.18;5.07;;;12.60;99.90;;;;;;5091452;28;20111;-59
2022/01/01 11:15:25;;;;;;;13.80;5.43;;;;;;;;;;5091775;28;20094;-60
2022/01/01 11:17:51;;;;;;;14.13;5.18;;;;;;;;;;5091379;28;20376;-60
2022/01/01 11:20:19;;;;;;;14.50;5.20;;;12.50;99.90;;;;;;5091800;28;20378;-62
2022/01/01 11:22:45;;;;;;;12.50;5.35;;;;;;;;;;5090128;28;20113;-60
2022/01/01 11:25:11;;;;;;;14.77;5.20;;;;;;;;;;5089738;28;20478;-61
2022/01/01 11:27:37;;;;;;;15.07;4.82;;;;;;;;;;5091368;28;20040;-62
2022/01/01 11:30:05;;;;;;;13.13;5.25;;;;;;;;;;5091077;28;20069;-61
2022/01/01 11:32:37;;;;;;;16.70;4.95;;;;;;;;;;5090665;28;20036;-63
2022/01/01 11:35:03;;;;;;;11.80;4.63;;;;;;;;;;5089496;28;20036;-63
2022/01/01 11:37:44;;;;;;;14.10;5.35;;;;;;;;;;5091046;28;20039;-59
2022/01/01 11:40:11;;;;;;;13.73;5.13;;;;;;;;;;5090963;28;20464;-61
2022/01/01 11:42:45;;;;;;;13.70;4.68;;;13.10;99.90;;;;;;5091205;28;20066;-60
2022/01/01 11:45:13;;;;;;;11.77;4.53;;;;;;;;;;5089513;28;20035;-60
2022/01/01 11:47:39;;;;;;;11.73;4.05;;;;;;;;;;5090159;28;20118;-61
2022/01/01 11:50:06;;;;;;;13.50;4.95;;;;;;;;;;5090607;28;20110;-61
2022/01/01 11:52:40;;;;;;;10.90;4.40;;;;;;;;;;5091259;28;20386;-61
2022/01/01 11:55:15;;;;;;;12.70;4.35;;;13.30;99.90;;;;;;5090386;28;20094;-60
2022/01/01 11:57:59;;;;;;;11.77;4.15;;;;;;;;;;5091093;28;20036;-63
2022/01/01 12:00:25;;;;;;;9.45;4.20;;;;;;;;;;5091159;28;20048;-59
2022/01/01 12:02:51;;;;;;;8.80;4.15;;;;;;;;;;5090825;28;20123;-60
2022/01/01 12:05:20;;;;;;;12.15;4.18;;;13.10;99.90;;;;;;5090708;28;20040;-61
2022/01/01 12:07:52;;;;;;;11.00;4.45;;;;;;;;;;5091047;28;20039;-59
2022/01/01 12:10:21;;;;;;;10.32;4.47;;;13.10;99.90;;;;;;5090584;28;20139;-60
2022/01/01 12:13:03;;;;;;;11.43;4.38;;;;;;;;;;5090738;28;20038;-61
2022/01/01 12:15:29;;;;;;;11.10;4.90;;;;;;;;;;5090819;28;20040;-59
2022/01/01 12:17:57;;;;;;;11.82;5.22;;;;;;;;;;5089317;28;20032;-59
2022/01/01 12:20:26;;;;;;;10.10;4.30;;;13.10;99.90;;;;;;5090399;28;20440;-61
2022/01/01 12:22:53;;;;;;;11.45;4.65;;;;;;;;;;5090532;28;20062;-62
2022/01/01 12:25:24;;;;;;;9.60;4.20;;;;;;;;;;5090332;28;20044;-60
2022/01/01 12:27:51;;;;;;;10.90;4.47;;;13.20;99.90;;;;;;5090551;28;20036;-60
2022/01/01 12:30:36;;;;;;;8.38;3.92;;;;;;;;;;5090462;28;20481;-61
2022/01/01 12:33:02;;;;;;;12.65;4.80;;;;;;;;;;5090574;28;20125;-61
2022/01/01 12:35:52;;;;;;;12.20;4.25;;;13.00;99.90;;;;;;5090497;28;20085;-59
2022/01/01 12:38:23;;;;;;;8.75;3.78;;;;;;;;;;5027603;28;20045;-61
2022/01/01 12:40:57;;;;;;;8.75;4.50;;;;;;;;;;5027791;28;20049;-61
2022/01/01 12:43:23;;;;;;;7.82;4.43;;;;;;;;;;5029944;28;20060;-60
2022/01/01 12:45:50;;;;;;;8.85;4.53;;;;;;;;;;5015521;28;20038;-59
2022/01/01 12:48:18;;;;;;;9.50;4.32;;;;;;;;;;5031679;28;20468;-59
2022/01/01 12:50:44;;;;;;;9.98;4.25;;;;;;;;;;5032062;28;20042;-62
2022/01/01 12:53:12;;;;;;;8.63;4.50;;;;;;;;;;5031635;28;20520;-61
2022/01/01 12:55:38;;;;;;;10.82;4.30;;;;;;;;;;5031648;28;20049;-61
2022/01/01 12:58:09;;;;;;;11.77;5.25;;;;;;;;;;5031704;28;20044;-60
2022/01/01 13:00:38;;;;;;;10.95;4.97;;;;;;;;;;5031566;28;20033;-59
2022/01/01 13:03:12;;;;;;;11.05;4.63;;;;;;;;;;5031609;28;20061;-61
2022/01/01 13:05:38;;;;;;;11.90;4.70;;;13.50;99.90;;;;;;5031523;28;20511;-59
2022/01/01 13:08:04;;;;;;;9.55;4.75;;;;;;;;;;5031589;28;20111;-62
2022/01/01 13:10:33;;;;;;;10.95;5.25;;;;;;;;;;5031258;28;20176;-61
2022/01/01 13:13:00;;;;;;;11.73;5.13;;;;;;;;;;5031480;28;20109;-62
2022/01/01 13:15:26;;;;;;;11.55;4.93;;;;;;;;;;5066351;28;20051;-62
2022/01/01 13:17:52;;;;;;;9.77;4.80;;;;;;;;;;5094039;28;20032;-62
2022/01/01 13:20:18;;;;;;;13.77;4.93;;;;;;;;;;5093968;28;20119;-61
2022/01/01 13:22:44;;;;;;;9.02;5.00;;;;;;;;;;5093970;28;20052;-60
2022/01/01 13:25:10;;;;;;;14.23;5.20;;;;;;;;;;5093766;28;20423;-59
2022/01/01 13:27:36;;;;;;;9.68;5.15;;;;;;;;;;5093429;28;20470;-61
2022/01/01 13:30:03;;;;;;;8.75;4.97;;;;;;;;;;5092535;28;20406;-62
2022/01/01 13:32:30;;;;;;;7.70;4.53;;;;;;;;;;5091995;28;20052;-60
2022/01/01 13:35:01;;;;;;;12.02;5.07;;;12.90;99.90;;;;;;5093537;28;20044;-58
2022/01/01 13:37:27;;;;;;;11.70;5.28;;;;;;;;;;5093498;28;20062;-60
2022/01/01 13:39:56;;;;;;;11.15;4.80;;;;;;;;;;5093605;28;20600;-62
2022/01/01 13:42:22;;;;;;;10.68;4.80;;;;;;;;;;5091968;28;20516;-62
2022/01/01 13:44:48;;;;;;;12.80;5.25;;;;;;;;;;5093255;28;20398;-62
2022/01/01 13:47:18;;;;;;;10.30;5.10;;;13.00;99.90;;;;;;5093566;28;20406;-60
2022/01/01 13:49:55;;;;;;;9.25;4.80;;;12.90;99.90;;;;;;5093022;28;20040;-61
2022/01/01 13:52:30;;;;;;;9.25;4.90;;;13.20;99.90;;;;;;5091697;28;20051;-62
2022/01/01 13:54:58;;;;;;;11.90;5.68;;;;;;;;;;5092504;28;20047;-62
2022/01/01 13:57:27;;;;;;;9.43;4.68;;;;;;;;;;5092930;28;20058;-60
2022/01/01 13:59:54;;;;;;;12.27;5.10;;;;;;;;;;5092058;28;20039;-60
2022/01/01 14:02:23;;;;;;;11.55;4.70;;;13.00;99.90;;;;;;5093282;28;20398;-60
2022/01/01 14:04:49;;;;;;;11.63;5.50;;;;;;;;;;5093088;28;20506;-61
2022/01/01 14:07:17;;;;;;;9.80;5.85;;;13.10;99.90;;;;;;5092927;28;20482;-60
2022/01/01 14:10:03;;;;;;;10.20;6.25;;;;;;;;;;5092465;28;20080;-61
2022/01/01 14:12:32;;;;;;;8.35;5.50;;;12.90;99.90;;;;;;5092860;28;20036;-59
2022/01/01 14:15:02;;;;;;;13.65;5.57;;;;;;;;;;5092725;28;20447;-61
2022/01/01 14:17:28;;;;;;;11.55;5.47;;;;;;;;;;5092878;28;20130;-61
2022/01/01 14:19:54;;;;;;;9.45;4.90;;;;;;;;;;5092624;28;20115;-61